CZ-0065 weather

Public forecast

Using degrees Celsius for public forecast. Weather courtesy of forecast.io.

Closest aviation weather report (METAR) to Jiřičky UL

Closest report is Čáslav Air Base, 24.9 nm (46.1 km) NNE. Retrieved 2020/08/14 01:30 UTC (5 minutes ago):

LKCV 140130Z 17004KT CAVOK 20/17 Q1013 NOSIG

Closest aviation forecast (TAF) to Jiřičky UL

Closest forecast is Čáslav Air Base, 24.9 nm (46.1 km) NNE. Retrieved 2020-08-14 00:06 UTC (1 hour ago):

TAF LKCV 132300Z 1400/1500 VRB02KT CAVOK TEMPO 1410/1423 7000 SHRA BKN040CB PROB40 TEMPO 1412/1421 23012KT 5000 TSRA BKN035CB